sensor_id;sensor_type;location;lat;lon;timestamp;P1;durP1;ratioP1;P2;durP2;ratioP2
7703;SDS011;3894;49.700;10.770;2022-08-01T00:01:44;6.97;;;4.80;;
7703;SDS011;3894;49.700;10.770;2022-08-01T00:04:09;5.68;;;4.97;;
7703;SDS011;3894;49.700;10.770;2022-08-01T00:06:35;7.38;;;5.50;;
7703;SDS011;3894;49.700;10.770;2022-08-01T00:09:00;6.55;;;4.90;;
7703;SDS011;3894;49.700;10.770;2022-08-01T00:11:26;6.60;;;5.20;;
7703;SDS011;3894;49.700;10.770;2022-08-01T00:13:52;8.15;;;5.05;;
7703;SDS011;3894;49.700;10.770;2022-08-01T00:16:17;6.68;;;5.32;;
7703;SDS011;3894;49.700;10.770;2022-08-01T00:18:43;6.03;;;5.22;;
7703;SDS011;3894;49.700;10.770;2022-08-01T00:21:09;6.43;;;5.72;;
7703;SDS011;3894;49.700;10.770;2022-08-01T00:23:34;5.55;;;4.82;;
7703;SDS011;3894;49.700;10.770;2022-08-01T00:26:00;7.00;;;5.50;;
7703;SDS011;3894;49.700;10.770;2022-08-01T00:28:26;6.35;;;5.53;;
7703;SDS011;3894;49.700;10.770;2022-08-01T00:30:51;7.68;;;5.90;;
7703;SDS011;3894;49.700;10.770;2022-08-01T00:33:17;6.90;;;6.00;;
7703;SDS011;3894;49.700;10.770;2022-08-01T00:35:42;6.47;;;5.68;;
7703;SDS011;3894;49.700;10.770;2022-08-01T00:38:08;6.95;;;5.15;;
7703;SDS011;3894;49.700;10.770;2022-08-01T00:40:34;6.13;;;5.15;;
7703;SDS011;3894;49.700;10.770;2022-08-01T00:42:59;6.70;;;5.15;;
7703;SDS011;3894;49.700;10.770;2022-08-01T00:45:25;6.72;;;5.63;;
7703;SDS011;3894;49.700;10.770;2022-08-01T00:47:50;8.27;;;5.55;;
7703;SDS011;3894;49.700;10.770;2022-08-01T00:50:16;6.90;;;5.60;;
7703;SDS011;3894;49.700;10.770;2022-08-01T00:52:41;7.55;;;5.75;;
7703;SDS011;3894;49.700;10.770;2022-08-01T00:55:08;6.05;;;5.22;;
7703;SDS011;3894;49.700;10.770;2022-08-01T00:57:35;6.85;;;5.05;;
7703;SDS011;3894;49.700;10.770;2022-08-01T01:00:00;5.63;;;4.50;;
7703;SDS011;3894;49.700;10.770;2022-08-01T01:02:26;5.53;;;4.22;;
7703;SDS011;3894;49.700;10.770;2022-08-01T01:04:52;6.93;;;4.30;;
7703;SDS011;3894;49.700;10.770;2022-08-01T01:10:19;5.07;;;3.40;;
7703;SDS011;3894;49.700;10.770;2022-08-01T01:12:51;6.45;;;3.70;;
7703;SDS011;3894;49.700;10.770;2022-08-01T01:15:31;4.55;;;3.80;;
7703;SDS011;3894;49.700;10.770;2022-08-01T01:18:03;4.28;;;3.00;;
7703;SDS011;3894;49.700;10.770;2022-08-01T01:20:42;4.88;;;3.30;;
7703;SDS011;3894;49.700;10.770;2022-08-01T01:31:22;3.58;;;3.05;;
7703;SDS011;3894;49.700;10.770;2022-08-01T01:33:50;4.35;;;3.13;;
7703;SDS011;3894;49.700;10.770;2022-08-01T01:36:18;4.38;;;3.15;;
7703;SDS011;3894;49.700;10.770;2022-08-01T01:38:46;6.00;;;3.10;;
7703;SDS011;3894;49.700;10.770;2022-08-01T01:41:14;4.07;;;3.00;;
7703;SDS011;3894;49.700;10.770;2022-08-01T01:43:42;4.82;;;3.30;;
7703;SDS011;3894;49.700;10.770;2022-08-01T01:46:10;4.93;;;2.88;;
7703;SDS011;3894;49.700;10.770;2022-08-01T01:48:37;4.15;;;2.97;;
7703;SDS011;3894;49.700;10.770;2022-08-01T01:51:05;4.15;;;3.10;;
7703;SDS011;3894;49.700;10.770;2022-08-01T01:53:32;5.40;;;2.97;;
7703;SDS011;3894;49.700;10.770;2022-08-01T01:55:59;4.82;;;3.00;;
7703;SDS011;3894;49.700;10.770;2022-08-01T01:58:27;4.10;;;2.75;;
7703;SDS011;3894;49.700;10.770;2022-08-01T02:00:53;6.07;;;2.90;;
7703;SDS011;3894;49.700;10.770;2022-08-01T02:03:21;3.67;;;2.83;;
7703;SDS011;3894;49.700;10.770;2022-08-01T02:05:49;5.38;;;2.88;;
7703;SDS011;3894;49.700;10.770;2022-08-01T02:08:18;6.03;;;2.67;;
7703;SDS011;3894;49.700;10.770;2022-08-01T02:10:45;4.57;;;2.67;;
7703;SDS011;3894;49.700;10.770;2022-08-01T02:13:31;4.72;;;2.90;;
7703;SDS011;3894;49.700;10.770;2022-08-01T02:15:59;3.70;;;2.65;;
7703;SDS011;3894;49.700;10.770;2022-08-01T02:18:25;6.30;;;2.97;;
7703;SDS011;3894;49.700;10.770;2022-08-01T02:20:52;5.32;;;2.70;;
7703;SDS011;3894;49.700;10.770;2022-08-01T02:23:20;3.05;;;2.30;;
7703;SDS011;3894;49.700;10.770;2022-08-01T02:25:49;3.50;;;2.50;;
7703;SDS011;3894;49.700;10.770;2022-08-01T02:28:21;3.55;;;2.55;;
7703;SDS011;3894;49.700;10.770;2022-08-01T02:30:59;5.03;;;2.60;;
7703;SDS011;3894;49.700;10.770;2022-08-01T02:33:27;4.05;;;2.38;;
7703;SDS011;3894;49.700;10.770;2022-08-01T02:36:07;3.97;;;2.40;;
7703;SDS011;3894;49.700;10.770;2022-08-01T02:38:37;3.45;;;2.30;;
7703;SDS011;3894;49.700;10.770;2022-08-01T02:41:09;4.20;;;2.60;;
7703;SDS011;3894;49.700;10.770;2022-08-01T02:43:38;3.90;;;2.60;;
7703;SDS011;3894;49.700;10.770;2022-08-01T02:46:08;4.13;;;2.80;;
7703;SDS011;3894;49.700;10.770;2022-08-01T02:48:41;4.63;;;2.88;;
7703;SDS011;3894;49.700;10.770;2022-08-01T02:51:08;4.32;;;2.95;;
7703;SDS011;3894;49.700;10.770;2022-08-01T02:53:36;4.40;;;2.42;;
7703;SDS011;3894;49.700;10.770;2022-08-01T02:56:04;4.53;;;2.70;;
7703;SDS011;3894;49.700;10.770;2022-08-01T02:58:32;3.95;;;2.90;;
7703;SDS011;3894;49.700;10.770;2022-08-01T03:01:00;4.47;;;2.67;;
7703;SDS011;3894;49.700;10.770;2022-08-01T03:03:26;3.22;;;2.40;;
7703;SDS011;3894;49.700;10.770;2022-08-01T03:05:53;3.83;;;2.47;;
7703;SDS011;3894;49.700;10.770;2022-08-01T03:08:19;4.05;;;2.55;;
7703;SDS011;3894;49.700;10.770;2022-08-01T03:10:46;3.78;;;2.47;;
7703;SDS011;3894;49.700;10.770;2022-08-01T03:13:13;3.60;;;2.53;;
7703;SDS011;3894;49.700;10.770;2022-08-01T03:15:41;4.13;;;2.30;;
7703;SDS011;3894;49.700;10.770;2022-08-01T03:18:09;3.85;;;2.58;;
7703;SDS011;3894;49.700;10.770;2022-08-01T03:20:36;3.05;;;2.30;;
7703;SDS011;3894;49.700;10.770;2022-08-01T03:23:06;3.00;;;1.95;;
7703;SDS011;3894;49.700;10.770;2022-08-01T03:25:34;2.97;;;2.05;;
7703;SDS011;3894;49.700;10.770;2022-08-01T03:28:03;4.03;;;2.45;;
7703;SDS011;3894;49.700;10.770;2022-08-01T03:30:30;4.38;;;2.53;;
7703;SDS011;3894;49.700;10.770;2022-08-01T03:32:57;3.80;;;2.33;;
7703;SDS011;3894;49.700;10.770;2022-08-01T03:35:23;3.42;;;2.17;;
7703;SDS011;3894;49.700;10.770;2022-08-01T03:37:53;3.97;;;2.30;;
7703;SDS011;3894;49.700;10.770;2022-08-01T03:40:40;3.08;;;2.10;;
7703;SDS011;3894;49.700;10.770;2022-08-01T03:43:15;3.88;;;2.30;;
7703;SDS011;3894;49.700;10.770;2022-08-01T03:45:51;4.00;;;2.30;;
7703;SDS011;3894;49.700;10.770;2022-08-01T03:48:19;3.53;;;2.35;;
7703;SDS011;3894;49.700;10.770;2022-08-01T03:50:51;5.10;;;2.20;;
7703;SDS011;3894;49.700;10.770;2022-08-01T03:53:20;3.80;;;2.15;;
7703;SDS011;3894;49.700;10.770;2022-08-01T03:58:15;3.92;;;2.30;;
7703;SDS011;3894;49.700;10.770;2022-08-01T04:00:41;4.78;;;2.33;;
7703;SDS011;3894;49.700;10.770;2022-08-01T04:03:08;3.75;;;2.13;;
7703;SDS011;3894;49.700;10.770;2022-08-01T04:05:35;4.35;;;2.38;;
7703;SDS011;3894;49.700;10.770;2022-08-01T04:08:00;4.05;;;2.10;;
7703;SDS011;3894;49.700;10.770;2022-08-01T04:10:27;4.00;;;2.15;;
7703;SDS011;3894;49.700;10.770;2022-08-01T04:12:53;4.68;;;2.17;;
7703;SDS011;3894;49.700;10.770;2022-08-01T04:15:19;2.78;;;2.38;;
7703;SDS011;3894;49.700;10.770;2022-08-01T04:17:45;4.82;;;2.50;;
7703;SDS011;3894;49.700;10.770;2022-08-01T04:22:39;2.95;;;2.25;;
7703;SDS011;3894;49.700;10.770;2022-08-01T04:25:10;3.97;;;2.35;;
7703;SDS011;3894;49.700;10.770;2022-08-01T04:27:46;5.18;;;2.85;;
7703;SDS011;3894;49.700;10.770;2022-08-01T04:30:13;7.78;;;4.35;;
7703;SDS011;3894;49.700;10.770;2022-08-01T04:32:41;9.27;;;5.00;;
7703;SDS011;3894;49.700;10.770;2022-08-01T04:35:11;8.20;;;4.22;;
7703;SDS011;3894;49.700;10.770;2022-08-01T04:37:41;10.02;;;5.90;;
7703;SDS011;3894;49.700;10.770;2022-08-01T04:40:09;10.75;;;5.75;;
7703;SDS011;3894;49.700;10.770;2022-08-01T04:42:36;7.35;;;4.03;;
7703;SDS011;3894;49.700;10.770;2022-08-01T04:45:02;6.85;;;3.70;;
7703;SDS011;3894;49.700;10.770;2022-08-01T04:47:27;5.75;;;3.25;;
7703;SDS011;3894;49.700;10.770;2022-08-01T04:49:55;4.63;;;2.72;;
7703;SDS011;3894;49.700;10.770;2022-08-01T04:52:22;5.28;;;2.70;;
7703;SDS011;3894;49.700;10.770;2022-08-01T04:54:47;4.85;;;3.28;;
7703;SDS011;3894;49.700;10.770;2022-08-01T04:57:13;6.95;;;2.90;;
7703;SDS011;3894;49.700;10.770;2022-08-01T04:59:41;6.53;;;2.90;;
7703;SDS011;3894;49.700;10.770;2022-08-01T05:02:08;4.88;;;2.90;;
7703;SDS011;3894;49.700;10.770;2022-08-01T05:04:37;4.68;;;2.75;;
7703;SDS011;3894;49.700;10.770;2022-08-01T05:07:04;4.22;;;2.65;;
7703;SDS011;3894;49.700;10.770;2022-08-01T05:09:46;3.83;;;2.63;;
7703;SDS011;3894;49.700;10.770;2022-08-01T05:12:12;3.20;;;2.40;;
7703;SDS011;3894;49.700;10.770;2022-08-01T05:14:38;4.70;;;2.83;;
7703;SDS011;3894;49.700;10.770;2022-08-01T05:17:05;3.75;;;2.83;;
7703;SDS011;3894;49.700;10.770;2022-08-01T05:19:33;5.47;;;3.05;;
7703;SDS011;3894;49.700;10.770;2022-08-01T05:22:03;5.18;;;2.70;;
7703;SDS011;3894;49.700;10.770;2022-08-01T05:24:38;5.63;;;2.88;;
7703;SDS011;3894;49.700;10.770;2022-08-01T05:27:04;4.57;;;2.72;;
7703;SDS011;3894;49.700;10.770;2022-08-01T05:29:33;4.88;;;2.72;;
7703;SDS011;3894;49.700;10.770;2022-08-01T05:31:59;6.90;;;4.50;;
7703;SDS011;3894;49.700;10.770;2022-08-01T05:34:25;8.65;;;5.63;;
7703;SDS011;3894;49.700;10.770;2022-08-01T05:36:51;8.80;;;5.75;;
7703;SDS011;3894;49.700;10.770;2022-08-01T05:39:17;4.75;;;3.28;;
7703;SDS011;3894;49.700;10.770;2022-08-01T05:41:46;6.03;;;2.92;;
7703;SDS011;3894;49.700;10.770;2022-08-01T05:44:11;5.65;;;2.65;;
7703;SDS011;3894;49.700;10.770;2022-08-01T05:46:37;5.38;;;2.50;;
7703;SDS011;3894;49.700;10.770;2022-08-01T05:49:04;5.07;;;2.50;;
7703;SDS011;3894;49.700;10.770;2022-08-01T05:51:30;3.83;;;2.20;;
7703;SDS011;3894;49.700;10.770;2022-08-01T05:53:56;3.15;;;2.30;;
7703;SDS011;3894;49.700;10.770;2022-08-01T05:56:24;5.13;;;2.60;;
7703;SDS011;3894;49.700;10.770;2022-08-01T05:58:50;2.97;;;2.40;;
7703;SDS011;3894;49.700;10.770;2022-08-01T06:01:17;3.97;;;2.30;;
7703;SDS011;3894;49.700;10.770;2022-08-01T06:03:43;3.78;;;2.60;;
7703;SDS011;3894;49.700;10.770;2022-08-01T06:06:10;5.25;;;2.53;;
7703;SDS011;3894;49.700;10.770;2022-08-01T06:08:36;4.80;;;2.60;;
7703;SDS011;3894;49.700;10.770;2022-08-01T06:11:03;4.55;;;2.42;;
7703;SDS011;3894;49.700;10.770;2022-08-01T06:13:30;2.70;;;2.17;;
7703;SDS011;3894;49.700;10.770;2022-08-01T06:16:02;3.17;;;2.20;;
7703;SDS011;3894;49.700;10.770;2022-08-01T06:18:28;4.03;;;2.20;;
7703;SDS011;3894;49.700;10.770;2022-08-01T06:20:53;4.13;;;2.03;;
7703;SDS011;3894;49.700;10.770;2022-08-01T06:23:20;3.13;;;2.17;;
7703;SDS011;3894;49.700;10.770;2022-08-01T06:25:46;3.88;;;2.47;;
7703;SDS011;3894;49.700;10.770;2022-08-01T06:28:17;5.00;;;2.53;;
7703;SDS011;3894;49.700;10.770;2022-08-01T06:30:43;4.38;;;2.30;;
7703;SDS011;3894;49.700;10.770;2022-08-01T06:33:08;4.05;;;2.10;;
7703;SDS011;3894;49.700;10.770;2022-08-01T06:35:34;4.70;;;2.42;;
7703;SDS011;3894;49.700;10.770;2022-08-01T06:38:00;3.60;;;2.22;;
7703;SDS011;3894;49.700;10.770;2022-08-01T06:40:26;3.58;;;2.50;;
7703;SDS011;3894;49.700;10.770;2022-08-01T06:42:52;5.03;;;2.28;;
7703;SDS011;3894;49.700;10.770;2022-08-01T06:45:20;3.70;;;2.60;;
7703;SDS011;3894;49.700;10.770;2022-08-01T06:47:50;3.38;;;2.20;;
7703;SDS011;3894;49.700;10.770;2022-08-01T06:50:18;4.28;;;2.60;;
7703;SDS011;3894;49.700;10.770;2022-08-01T06:52:55;2.90;;;2.03;;
7703;SDS011;3894;49.700;10.770;2022-08-01T06:55:20;3.60;;;2.40;;
7703;SDS011;3894;49.700;10.770;2022-08-01T06:57:47;4.47;;;2.50;;
7703;SDS011;3894;49.700;10.770;2022-08-01T07:00:13;3.60;;;2.17;;
7703;SDS011;3894;49.700;10.770;2022-08-01T07:02:45;3.80;;;2.05;;
7703;SDS011;3894;49.700;10.770;2022-08-01T07:05:15;4.22;;;2.47;;
7703;SDS011;3894;49.700;10.770;2022-08-01T07:07:40;5.00;;;2.45;;
7703;SDS011;3894;49.700;10.770;2022-08-01T07:10:06;4.35;;;2.40;;
7703;SDS011;3894;49.700;10.770;2022-08-01T07:12:33;4.63;;;2.40;;
7703;SDS011;3894;49.700;10.770;2022-08-01T07:15:01;5.88;;;2.72;;
7703;SDS011;3894;49.700;10.770;2022-08-01T07:17:31;3.60;;;2.40;;
7703;SDS011;3894;49.700;10.770;2022-08-01T07:19:57;4.32;;;2.90;;
7703;SDS011;3894;49.700;10.770;2022-08-01T07:22:23;3.83;;;2.58;;
7703;SDS011;3894;49.700;10.770;2022-08-01T07:24:48;3.58;;;2.55;;
7703;SDS011;3894;49.700;10.770;2022-08-01T07:27:14;4.68;;;2.65;;
7703;SDS011;3894;49.700;10.770;2022-08-01T07:29:40;3.70;;;2.33;;
7703;SDS011;3894;49.700;10.770;2022-08-01T07:32:15;5.38;;;2.60;;
7703;SDS011;3894;49.700;10.770;2022-08-01T07:34:43;4.03;;;2.58;;
7703;SDS011;3894;49.700;10.770;2022-08-01T07:37:09;3.38;;;2.50;;
7703;SDS011;3894;49.700;10.770;2022-08-01T07:39:34;4.10;;;2.50;;
7703;SDS011;3894;49.700;10.770;2022-08-01T07:42:00;3.00;;;2.10;;
7703;SDS011;3894;49.700;10.770;2022-08-01T07:44:26;4.47;;;2.38;;
7703;SDS011;3894;49.700;10.770;2022-08-01T07:46:51;3.70;;;2.10;;
7703;SDS011;3894;49.700;10.770;2022-08-01T07:49:19;2.55;;;2.00;;
7703;SDS011;3894;49.700;10.770;2022-08-01T07:51:46;4.00;;;2.17;;
7703;SDS011;3894;49.700;10.770;2022-08-01T07:54:12;3.22;;;2.10;;
7703;SDS011;3894;49.700;10.770;2022-08-01T07:56:38;2.47;;;2.00;;
7703;SDS011;3894;49.700;10.770;2022-08-01T07:59:06;1.92;;;1.77;;
7703;SDS011;3894;49.700;10.770;2022-08-01T08:01:32;4.63;;;2.30;;
7703;SDS011;3894;49.700;10.770;2022-08-01T08:03:58;5.70;;;2.15;;
7703;SDS011;3894;49.700;10.770;2022-08-01T08:06:23;2.67;;;1.92;;
7703;SDS011;3894;49.700;10.770;2022-08-01T08:08:49;3.35;;;1.90;;
7703;SDS011;3894;49.700;10.770;2022-08-01T08:11:15;2.15;;;1.50;;
7703;SDS011;3894;49.700;10.770;2022-08-01T08:13:41;3.28;;;1.90;;
7703;SDS011;3894;49.700;10.770;2022-08-01T08:16:15;4.78;;;2.13;;
7703;SDS011;3894;49.700;10.770;2022-08-01T08:18:41;3.00;;;1.92;;
7703;SDS011;3894;49.700;10.770;2022-08-01T08:21:07;2.80;;;2.00;;
7703;SDS011;3894;49.700;10.770;2022-08-01T08:23:32;2.90;;;2.17;;
7703;SDS011;3894;49.700;10.770;2022-08-01T08:26:16;4.05;;;2.00;;
7703;SDS011;3894;49.700;10.770;2022-08-01T08:28:42;2.90;;;1.70;;
7703;SDS011;3894;49.700;10.770;2022-08-01T08:31:08;3.58;;;2.15;;
7703;SDS011;3894;49.700;10.770;2022-08-01T08:33:33;4.53;;;2.40;;
7703;SDS011;3894;49.700;10.770;2022-08-01T08:35:59;3.38;;;1.83;;
7703;SDS011;3894;49.700;10.770;2022-08-01T08:38:25;2.10;;;1.90;;
7703;SDS011;3894;49.700;10.770;2022-08-01T08:40:52;6.05;;;2.28;;
7703;SDS011;3894;49.700;10.770;2022-08-01T08:43:18;3.47;;;2.15;;
7703;SDS011;3894;49.700;10.770;2022-08-01T08:45:44;3.05;;;1.98;;
7703;SDS011;3894;49.700;10.770;2022-08-01T08:48:11;4.22;;;2.22;;
7703;SDS011;3894;49.700;10.770;2022-08-01T08:50:38;3.72;;;2.10;;
7703;SDS011;3894;49.700;10.770;2022-08-01T08:53:04;2.60;;;2.08;;
7703;SDS011;3894;49.700;10.770;2022-08-01T08:55:30;3.60;;;1.98;;
7703;SDS011;3894;49.700;10.770;2022-08-01T08:57:56;2.92;;;2.08;;
7703;SDS011;3894;49.700;10.770;2022-08-01T09:00:24;3.85;;;2.30;;
7703;SDS011;3894;49.700;10.770;2022-08-01T09:02:50;5.93;;;2.25;;
7703;SDS011;3894;49.700;10.770;2022-08-01T09:05:17;4.15;;;2.20;;
7703;SDS011;3894;49.700;10.770;2022-08-01T09:07:43;2.88;;;1.80;;
7703;SDS011;3894;49.700;10.770;2022-08-01T09:10:09;2.35;;;1.98;;
7703;SDS011;3894;49.700;10.770;2022-08-01T09:12:37;3.88;;;1.80;;
7703;SDS011;3894;49.700;10.770;2022-08-01T09:15:03;2.90;;;1.80;;
7703;SDS011;3894;49.700;10.770;2022-08-01T09:17:38;2.72;;;1.88;;
7703;SDS011;3894;49.700;10.770;2022-08-01T09:20:05;4.88;;;1.85;;
7703;SDS011;3894;49.700;10.770;2022-08-01T09:22:32;2.88;;;1.88;;
7703;SDS011;3894;49.700;10.770;2022-08-01T09:25:00;3.00;;;1.80;;
7703;SDS011;3894;49.700;10.770;2022-08-01T09:27:30;2.03;;;1.73;;
7703;SDS011;3894;49.700;10.770;2022-08-01T09:30:06;3.80;;;2.00;;
7703;SDS011;3894;49.700;10.770;2022-08-01T09:32:35;2.67;;;1.77;;
7703;SDS011;3894;49.700;10.770;2022-08-01T09:41:04;5.30;;;2.00;;
7703;SDS011;3894;49.700;10.770;2022-08-01T09:43:30;2.75;;;2.17;;
7703;SDS011;3894;49.700;10.770;2022-08-01T09:45:56;3.22;;;2.08;;
7703;SDS011;3894;49.700;10.770;2022-08-01T09:48:22;2.70;;;1.80;;
7703;SDS011;3894;49.700;10.770;2022-08-01T09:50:50;5.32;;;2.22;;
7703;SDS011;3894;49.700;10.770;2022-08-01T09:53:17;3.95;;;2.00;;
7703;SDS011;3894;49.700;10.770;2022-08-01T09:55:43;2.95;;;2.10;;
7703;SDS011;3894;49.700;10.770;2022-08-01T09:58:09;3.03;;;2.25;;
7703;SDS011;3894;49.700;10.770;2022-08-01T10:00:36;2.58;;;1.95;;
7703;SDS011;3894;49.700;10.770;2022-08-01T10:03:19;3.88;;;2.50;;
7703;SDS011;3894;49.700;10.770;2022-08-01T10:05:49;3.50;;;2.05;;
7703;SDS011;3894;49.700;10.770;2022-08-01T10:08:16;2.67;;;1.98;;
7703;SDS011;3894;49.700;10.770;2022-08-01T10:13:32;4.03;;;1.80;;
7703;SDS011;3894;49.700;10.770;2022-08-01T10:15:57;5.60;;;2.03;;
7703;SDS011;3894;49.700;10.770;2022-08-01T10:18:30;3.53;;;1.87;;
7703;SDS011;3894;49.700;10.770;2022-08-01T10:21:00;4.18;;;1.92;;
7703;SDS011;3894;49.700;10.770;2022-08-01T10:23:27;3.20;;;2.03;;
7703;SDS011;3894;49.700;10.770;2022-08-01T10:25:58;3.70;;;2.10;;
7703;SDS011;3894;49.700;10.770;2022-08-01T10:28:25;3.97;;;1.90;;
7703;SDS011;3894;49.700;10.770;2022-08-01T10:30:54;2.63;;;1.60;;
7703;SDS011;3894;49.700;10.770;2022-08-01T10:33:22;2.25;;;1.58;;
7703;SDS011;3894;49.700;10.770;2022-08-01T10:35:49;2.17;;;1.60;;
7703;SDS011;3894;49.700;10.770;2022-08-01T10:38:16;1.88;;;1.60;;
7703;SDS011;3894;49.700;10.770;2022-08-01T10:40:42;2.53;;;1.77;;
7703;SDS011;3894;49.700;10.770;2022-08-01T10:43:14;3.47;;;1.70;;
7703;SDS011;3894;49.700;10.770;2022-08-01T10:45:42;2.00;;;1.40;;
7703;SDS011;3894;49.700;10.770;2022-08-01T10:48:16;1.95;;;1.67;;
7703;SDS011;3894;49.700;10.770;2022-08-01T10:50:48;2.25;;;1.40;;
7703;SDS011;3894;49.700;10.770;2022-08-01T10:53:18;2.58;;;1.80;;
7703;SDS011;3894;49.700;10.770;2022-08-01T10:55:58;2.47;;;1.73;;
7703;SDS011;3894;49.700;10.770;2022-08-01T10:58:29;2.72;;;1.80;;
7703;SDS011;3894;49.700;10.770;2022-08-01T11:03:56;2.63;;;1.80;;
7703;SDS011;3894;49.700;10.770;2022-08-01T11:06:25;3.67;;;2.42;;
7703;SDS011;3894;49.700;10.770;2022-08-01T11:08:57;2.72;;;2.35;;
7703;SDS011;3894;49.700;10.770;2022-08-01T11:11:25;4.18;;;2.67;;
7703;SDS011;3894;49.700;10.770;2022-08-01T11:16:29;3.60;;;2.40;;
7703;SDS011;3894;49.700;10.770;2022-08-01T11:18:56;4.17;;;2.70;;
7703;SDS011;3894;49.700;10.770;2022-08-01T11:21:30;3.15;;;2.50;;
7703;SDS011;3894;49.700;10.770;2022-08-01T11:24:33;4.25;;;2.58;;
7703;SDS011;3894;49.700;10.770;2022-08-01T11:32:32;2.35;;;2.15;;
7703;SDS011;3894;49.700;10.770;2022-08-01T11:34:58;3.78;;;2.65;;
7703;SDS011;3894;49.700;10.770;2022-08-01T11:37:24;3.40;;;2.33;;
7703;SDS011;3894;49.700;10.770;2022-08-01T11:42:39;2.83;;;2.03;;
7703;SDS011;3894;49.700;10.770;2022-08-01T11:45:05;3.25;;;2.10;;
7703;SDS011;3894;49.700;10.770;2022-08-01T11:47:44;2.88;;;2.40;;
7703;SDS011;3894;49.700;10.770;2022-08-01T11:50:30;3.40;;;2.30;;
7703;SDS011;3894;49.700;10.770;2022-08-01T11:55:26;2.38;;;2.13;;
7703;SDS011;3894;49.700;10.770;2022-08-01T11:58:00;3.25;;;2.10;;
7703;SDS011;3894;49.700;10.770;2022-08-01T12:00:28;4.78;;;2.45;;
7703;SDS011;3894;49.700;10.770;2022-08-01T12:02:56;2.05;;;1.70;;
7703;SDS011;3894;49.700;10.770;2022-08-01T12:05:23;3.25;;;2.00;;
7703;SDS011;3894;49.700;10.770;2022-08-01T12:07:49;2.15;;;1.50;;
7703;SDS011;3894;49.700;10.770;2022-08-01T12:10:16;1.88;;;1.67;;
7703;SDS011;3894;49.700;10.770;2022-08-01T12:12:48;2.15;;;1.60;;
7703;SDS011;3894;49.700;10.770;2022-08-01T12:15:35;2.83;;;1.90;;
7703;SDS011;3894;49.700;10.770;2022-08-01T12:18:03;2.63;;;1.65;;
7703;SDS011;3894;49.700;10.770;2022-08-01T12:20:31;3.88;;;2.10;;
7703;SDS011;3894;49.700;10.770;2022-08-01T12:22:59;2.65;;;2.00;;
7703;SDS011;3894;49.700;10.770;2022-08-01T12:25:25;3.65;;;2.00;;
7703;SDS011;3894;49.700;10.770;2022-08-01T12:27:52;3.63;;;2.15;;
7703;SDS011;3894;49.700;10.770;2022-08-01T12:30:19;2.70;;;2.17;;
7703;SDS011;3894;49.700;10.770;2022-08-01T12:32:49;2.90;;;2.28;;
7703;SDS011;3894;49.700;10.770;2022-08-01T12:37:48;4.22;;;2.25;;
7703;SDS011;3894;49.700;10.770;2022-08-01T12:40:19;4.13;;;2.10;;
7703;SDS011;3894;49.700;10.770;2022-08-01T12:42:48;4.18;;;1.80;;
7703;SDS011;3894;49.700;10.770;2022-08-01T12:45:17;2.13;;;1.90;;
7703;SDS011;3894;49.700;10.770;2022-08-01T12:47:45;2.90;;;1.80;;
7703;SDS011;3894;49.700;10.770;2022-08-01T12:50:14;2.45;;;1.85;;
7703;SDS011;3894;49.700;10.770;2022-08-01T12:52:41;2.85;;;1.80;;
7703;SDS011;3894;49.700;10.770;2022-08-01T12:57:37;2.42;;;1.50;;
7703;SDS011;3894;49.700;10.770;2022-08-01T13:00:09;3.60;;;1.75;;
7703;SDS011;3894;49.700;10.770;2022-08-01T13:02:36;3.72;;;1.83;;
7703;SDS011;3894;49.700;10.770;2022-08-01T13:05:03;2.17;;;1.52;;
7703;SDS011;3894;49.700;10.770;2022-08-01T13:07:43;1.73;;;1.50;;
7703;SDS011;3894;49.700;10.770;2022-08-01T13:10:14;3.15;;;2.03;;
7703;SDS011;3894;49.700;10.770;2022-08-01T13:12:52;3.10;;;1.67;;
7703;SDS011;3894;49.700;10.770;2022-08-01T13:17:45;2.03;;;1.30;;
7703;SDS011;3894;49.700;10.770;2022-08-01T13:20:20;2.85;;;1.38;;
7703;SDS011;3894;49.700;10.770;2022-08-01T13:23:12;1.90;;;1.50;;
7703;SDS011;3894;49.700;10.770;2022-08-01T13:25:50;2.28;;;1.60;;
7703;SDS011;3894;49.700;10.770;2022-08-01T13:28:25;3.75;;;1.60;;
7703;SDS011;3894;49.700;10.770;2022-08-01T13:33:17;4.30;;;1.73;;
7703;SDS011;3894;49.700;10.770;2022-08-01T13:35:42;2.28;;;1.20;;
7703;SDS011;3894;49.700;10.770;2022-08-01T13:38:08;2.35;;;1.50;;
7703;SDS011;3894;49.700;10.770;2022-08-01T13:40:33;2.20;;;1.30;;
7703;SDS011;3894;49.700;10.770;2022-08-01T13:42:59;1.40;;;1.30;;
7703;SDS011;3894;49.700;10.770;2022-08-01T13:45:25;2.05;;;1.45;;
7703;SDS011;3894;49.700;10.770;2022-08-01T13:47:50;2.05;;;1.50;;
7703;SDS011;3894;49.700;10.770;2022-08-01T13:50:16;2.00;;;1.42;;
7703;SDS011;3894;49.700;10.770;2022-08-01T13:52:41;1.50;;;1.30;;
7703;SDS011;3894;49.700;10.770;2022-08-01T13:55:07;3.50;;;1.33;;
7703;SDS011;3894;49.700;10.770;2022-08-01T13:57:33;1.40;;;1.10;;
7703;SDS011;3894;49.700;10.770;2022-08-01T13:59:58;2.33;;;1.27;;
7703;SDS011;3894;49.700;10.770;2022-08-01T14:02:25;1.85;;;1.50;;
7703;SDS011;3894;49.700;10.770;2022-08-01T14:04:51;4.22;;;1.50;;
7703;SDS011;3894;49.700;10.770;2022-08-01T14:07:19;1.98;;;1.20;;
7703;SDS011;3894;49.700;10.770;2022-08-01T14:09:44;2.60;;;1.58;;
7703;SDS011;3894;49.700;10.770;2022-08-01T14:12:10;2.97;;;1.60;;
7703;SDS011;3894;49.700;10.770;2022-08-01T14:14:36;2.33;;;1.60;;
7703;SDS011;3894;49.700;10.770;2022-08-01T14:17:03;2.08;;;1.70;;
7703;SDS011;3894;49.700;10.770;2022-08-01T14:19:29;1.98;;;1.77;;
7703;SDS011;3894;49.700;10.770;2022-08-01T14:21:55;2.03;;;1.83;;
7703;SDS011;3894;49.700;10.770;2022-08-01T14:24:21;2.00;;;1.70;;
7703;SDS011;3894;49.700;10.770;2022-08-01T14:26:47;3.33;;;1.77;;
7703;SDS011;3894;49.700;10.770;2022-08-01T14:29:13;2.03;;;1.75;;
7703;SDS011;3894;49.700;10.770;2022-08-01T14:31:38;2.63;;;1.58;;
7703;SDS011;3894;49.700;10.770;2022-08-01T14:34:04;1.65;;;1.50;;
7703;SDS011;3894;49.700;10.770;2022-08-01T14:36:29;2.45;;;1.80;;
7703;SDS011;3894;49.700;10.770;2022-08-01T14:38:55;2.80;;;1.67;;
7703;SDS011;3894;49.700;10.770;2022-08-01T14:41:22;4.15;;;1.80;;
7703;SDS011;3894;49.700;10.770;2022-08-01T14:43:47;3.38;;;2.00;;
7703;SDS011;3894;49.700;10.770;2022-08-01T14:46:13;2.03;;;1.75;;
7703;SDS011;3894;49.700;10.770;2022-08-01T14:48:38;3.60;;;1.90;;
7703;SDS011;3894;49.700;10.770;2022-08-01T14:51:04;1.85;;;1.65;;
7703;SDS011;3894;49.700;10.770;2022-08-01T14:53:32;3.85;;;1.90;;
7703;SDS011;3894;49.700;10.770;2022-08-01T14:55:58;2.63;;;1.75;;
7703;SDS011;3894;49.700;10.770;2022-08-01T14:58:23;2.97;;;1.80;;
7703;SDS011;3894;49.700;10.770;2022-08-01T15:00:49;2.65;;;1.90;;
7703;SDS011;3894;49.700;10.770;2022-08-01T15:03:14;2.92;;;1.80;;
7703;SDS011;3894;49.700;10.770;2022-08-01T15:05:40;3.00;;;1.80;;
7703;SDS011;3894;49.700;10.770;2022-08-01T15:08:06;3.60;;;1.73;;
7703;SDS011;3894;49.700;10.770;2022-08-01T15:10:32;2.75;;;2.05;;
7703;SDS011;3894;49.700;10.770;2022-08-01T15:12:58;2.22;;;1.90;;
7703;SDS011;3894;49.700;10.770;2022-08-01T15:15:25;4.72;;;1.90;;
7703;SDS011;3894;49.700;10.770;2022-08-01T15:17:51;3.28;;;1.85;;
7703;SDS011;3894;49.700;10.770;2022-08-01T15:20:17;9.13;;;2.00;;
7703;SDS011;3894;49.700;10.770;2022-08-01T15:22:43;3.92;;;1.90;;
7703;SDS011;3894;49.700;10.770;2022-08-01T15:25:09;7.65;;;2.00;;
7703;SDS011;3894;49.700;10.770;2022-08-01T15:27:34;3.97;;;1.83;;
7703;SDS011;3894;49.700;10.770;2022-08-01T15:30:00;1.95;;;1.60;;
7703;SDS011;3894;49.700;10.770;2022-08-01T15:32:27;4.30;;;1.90;;
7703;SDS011;3894;49.700;10.770;2022-08-01T15:34:53;2.63;;;1.80;;
7703;SDS011;3894;49.700;10.770;2022-08-01T15:37:19;3.17;;;1.75;;
7703;SDS011;3894;49.700;10.770;2022-08-01T15:39:44;3.20;;;1.90;;
7703;SDS011;3894;49.700;10.770;2022-08-01T15:42:11;2.80;;;1.73;;
7703;SDS011;3894;49.700;10.770;2022-08-01T15:44:38;2.40;;;1.67;;
7703;SDS011;3894;49.700;10.770;2022-08-01T15:47:05;4.63;;;1.80;;
7703;SDS011;3894;49.700;10.770;2022-08-01T15:49:31;2.22;;;1.88;;
7703;SDS011;3894;49.700;10.770;2022-08-01T15:51:57;5.88;;;2.08;;
7703;SDS011;3894;49.700;10.770;2022-08-01T15:54:23;2.75;;;1.95;;
7703;SDS011;3894;49.700;10.770;2022-08-01T15:56:48;3.40;;;2.10;;